createdAt,value
2017-10-20T00:01:21.023Z,100618
2017-10-20T00:03:49.356Z,100619
2017-10-20T00:06:18.024Z,100628
2017-10-20T00:08:46.337Z,100621
2017-10-20T00:11:14.646Z,100625
2017-10-20T00:13:42.956Z,100627
2017-10-20T00:16:11.277Z,100628
2017-10-20T00:18:39.627Z,100630
2017-10-20T00:21:07.948Z,100624
2017-10-20T00:23:36.255Z,100618
2017-10-20T00:26:04.688Z,100624
2017-10-20T00:28:33.009Z,100618
2017-10-20T00:31:01.405Z,100628
2017-10-20T00:33:29.712Z,100624
2017-10-20T00:35:58.017Z,100631
2017-10-20T00:38:26.333Z,100618
2017-10-20T00:40:54.652Z,100618
2017-10-20T00:43:22.984Z,100616
2017-10-20T00:45:51.296Z,100616
2017-10-20T00:48:19.605Z,100621
2017-10-20T00:50:47.976Z,100605
2017-10-20T00:53:16.302Z,100614
2017-10-20T00:55:44.847Z,100625
2017-10-20T00:58:13.349Z,100613
2017-10-20T01:00:42.020Z,100620
2017-10-20T01:03:10.440Z,100623
2017-10-20T01:05:38.791Z,100619
2017-10-20T01:08:07.443Z,100606
2017-10-20T01:10:35.919Z,100609
2017-10-20T01:13:04.288Z,100605
2017-10-20T01:15:33.504Z,100601
2017-10-20T01:18:02.006Z,100601
2017-10-20T01:20:30.407Z,100604
2017-10-20T01:22:58.827Z,100604
2017-10-20T01:25:28.072Z,100605
2017-10-20T01:27:56.543Z,100602
2017-10-20T01:30:25.072Z,100602
2017-10-20T01:32:54.151Z,100598
2017-10-20T01:35:22.524Z,100603
2017-10-20T01:37:50.912Z,100587
2017-10-20T01:40:19.334Z,100601
2017-10-20T01:42:47.716Z,100596
2017-10-20T01:45:16.117Z,100597
2017-10-20T01:47:44.498Z,100575
2017-10-20T01:50:13.056Z,100576
2017-10-20T01:52:41.512Z,100580
2017-10-20T01:55:10.048Z,100590
2017-10-20T01:57:38.707Z,100578
2017-10-20T02:00:07.152Z,100577
2017-10-20T02:02:35.797Z,100583
2017-10-20T02:05:04.759Z,100572
2017-10-20T02:07:33.292Z,100570
2017-10-20T02:10:01.644Z,100574
2017-10-20T02:12:29.996Z,100568
2017-10-20T02:14:58.723Z,100563
2017-10-20T02:17:27.201Z,100577
2017-10-20T02:19:55.552Z,100561
2017-10-20T02:22:23.975Z,100567
2017-10-20T02:24:52.328Z,100565
2017-10-20T02:27:20.676Z,100560
2017-10-20T02:29:49.031Z,100559
2017-10-20T02:32:17.408Z,100551
2017-10-20T02:34:45.771Z,100550
2017-10-20T02:37:14.193Z,100560
2017-10-20T02:39:42.716Z,100559
2017-10-20T02:42:11.209Z,100561
2017-10-20T02:44:39.568Z,100565
2017-10-20T02:47:07.913Z,100560
2017-10-20T02:49:36.513Z,100565
2017-10-20T02:52:04.923Z,100558
2017-10-20T02:54:33.277Z,100553
2017-10-20T02:57:01.776Z,100555
2017-10-20T02:59:30.217Z,100548
2017-10-20T03:01:58.743Z,100550
2017-10-20T03:04:27.496Z,100544
2017-10-20T03:06:55.892Z,100551
2017-10-20T03:09:24.231Z,100546
2017-10-20T03:11:53.331Z,100546
2017-10-20T03:14:22.543Z,100539
2017-10-20T03:16:50.857Z,100525
2017-10-20T03:19:19.160Z,100533
2017-10-20T03:21:47.491Z,100535
2017-10-20T03:24:15.812Z,100533
2017-10-20T03:26:44.140Z,100532
2017-10-20T03:29:12.468Z,100521
2017-10-20T03:31:40.784Z,100534
2017-10-20T03:34:09.975Z,100536
2017-10-20T03:36:38.296Z,100538
2017-10-20T03:39:07.136Z,100533
2017-10-20T03:41:35.452Z,100529
2017-10-20T03:44:03.841Z,100528
2017-10-20T03:46:32.200Z,100528
2017-10-20T03:49:00.524Z,100534
2017-10-20T03:51:28.895Z,100535
2017-10-20T03:53:57.294Z,100541
2017-10-20T03:56:25.680Z,100535
2017-10-20T03:58:54.048Z,100540
2017-10-20T04:01:22.414Z,100538
2017-10-20T04:03:50.982Z,100543
2017-10-20T04:06:19.336Z,100532
2017-10-20T04:08:47.959Z,100529
2017-10-20T04:11:16.608Z,100538
2017-10-20T04:13:45.001Z,100538
2017-10-20T04:16:13.584Z,100535
2017-10-20T04:18:41.952Z,100535
2017-10-20T04:21:10.281Z,100528
2017-10-20T04:23:38.653Z,100524
2017-10-20T04:26:07.052Z,100518
2017-10-20T04:28:35.356Z,100517
2017-10-20T04:31:03.668Z,100528
2017-10-20T04:33:31.958Z,100529
2017-10-20T04:36:00.260Z,100529
2017-10-20T04:38:29.328Z,100529
2017-10-20T04:40:57.639Z,100532
2017-10-20T04:43:26.683Z,100516
2017-10-20T04:45:54.999Z,100526
2017-10-20T04:48:23.380Z,100526
2017-10-20T04:50:51.685Z,100520
2017-10-20T04:53:20.015Z,100523
2017-10-20T04:55:48.655Z,100524
2017-10-20T04:58:16.952Z,100512
2017-10-20T05:00:45.240Z,100506
2017-10-20T05:03:13.564Z,100512
2017-10-20T05:05:42.611Z,100504
2017-10-20T05:08:11.168Z,100506
2017-10-20T05:10:39.548Z,100338
2017-10-20T05:13:07.872Z,100505
2017-10-20T05:15:36.335Z,100511
2017-10-20T05:18:04.640Z,100507
2017-10-20T05:20:33.128Z,100506
2017-10-20T05:23:01.431Z,100501
2017-10-20T05:25:29.752Z,100500
2017-10-20T05:27:58.112Z,100499
2017-10-20T05:30:26.471Z,100503
2017-10-20T05:32:54.796Z,100501
2017-10-20T05:35:23.184Z,100496
2017-10-20T05:37:51.548Z,100502
2017-10-20T05:40:19.926Z,100500
2017-10-20T05:42:48.279Z,100507
2017-10-20T05:45:16.604Z,100502
2017-10-20T05:47:46.449Z,100488
2017-10-20T05:50:15.847Z,100485
2017-10-20T05:52:44.180Z,100478
2017-10-20T05:55:12.509Z,100480
2017-10-20T05:57:41.104Z,100477
2017-10-20T06:00:09.492Z,100484
2017-10-20T06:02:37.890Z,100486
2017-10-20T06:05:06.221Z,100476
2017-10-20T06:07:35.366Z,100484
2017-10-20T06:10:04.009Z,100481
2017-10-20T06:12:33.238Z,100480
2017-10-20T06:15:01.537Z,100496
2017-10-20T06:17:38.882Z,100488
2017-10-20T06:20:07.257Z,100486
2017-10-20T06:22:36.348Z,100477
2017-10-20T06:25:05.408Z,100480
2017-10-20T06:27:33.752Z,100476
2017-10-20T06:30:02.068Z,100492
2017-10-20T06:32:30.396Z,100491
2017-10-20T06:34:58.751Z,100476
2017-10-20T06:37:27.108Z,100467
2017-10-20T06:39:55.429Z,100468
2017-10-20T06:42:23.953Z,100449
2017-10-20T06:44:52.386Z,100452
2017-10-20T06:47:20.813Z,100465
2017-10-20T06:49:49.326Z,100460
2017-10-20T06:52:18.560Z,100464
2017-10-20T06:54:46.937Z,100465
2017-10-20T06:57:15.337Z,100465
2017-10-20T06:59:43.724Z,100464
2017-10-20T07:02:13.184Z,100474
2017-10-20T07:04:42.009Z,100476
2017-10-20T07:07:10.700Z,100469
2017-10-20T07:09:39.177Z,100474
2017-10-20T07:12:09.072Z,100474
2017-10-20T07:14:37.486Z,100476
2017-10-20T07:17:05.930Z,100491
2017-10-20T07:19:34.496Z,100484
2017-10-20T07:22:03.029Z,100479
2017-10-20T07:24:31.374Z,100476
2017-10-20T07:26:59.837Z,100474
2017-10-20T07:29:28.336Z,100484
2017-10-20T07:31:56.964Z,100476
2017-10-20T07:34:25.600Z,100477
2017-10-20T07:36:53.940Z,100480
2017-10-20T07:39:22.513Z,100486
2017-10-20T07:41:51.051Z,100479
2017-10-20T07:44:19.437Z,100488
2017-10-20T07:46:48.001Z,100482
2017-10-20T07:49:16.369Z,100492
2017-10-20T07:51:45.440Z,100484
2017-10-20T07:54:13.804Z,100491
2017-10-20T07:56:42.140Z,100482
2017-10-20T07:59:10.486Z,100480
2017-10-20T08:01:39.552Z,100486
2017-10-20T08:04:08.085Z,100485
2017-10-20T08:06:36.443Z,100491
2017-10-20T08:09:06.191Z,100489
2017-10-20T08:11:34.692Z,100489
2017-10-20T08:14:03.016Z,100517
2017-10-20T08:16:35.369Z,100500
2017-10-20T08:19:03.986Z,100503
2017-10-20T08:21:33.219Z,100498
2017-10-20T08:24:01.801Z,100495
2017-10-20T08:26:30.161Z,100494
2017-10-20T08:28:58.665Z,100501
2017-10-20T08:31:27.213Z,100506
2017-10-20T08:33:55.533Z,100520
2017-10-20T08:36:24.196Z,100520
2017-10-20T08:38:52.551Z,100526
2017-10-20T08:41:20.883Z,100522
2017-10-20T08:43:49.596Z,100519
2017-10-20T08:46:18.423Z,100518
2017-10-20T08:48:46.772Z,100521
2017-10-20T08:51:15.244Z,100519
2017-10-20T08:53:43.872Z,100530
2017-10-20T08:56:12.200Z,100530
2017-10-20T08:58:40.564Z,100529
2017-10-20T09:01:08.889Z,100533
2017-10-20T09:03:38.136Z,100531
2017-10-20T09:06:06.474Z,100537
2017-10-20T09:08:36.270Z,100550
2017-10-20T09:11:04.611Z,100544
2017-10-20T09:13:32.990Z,100549
2017-10-20T09:16:01.384Z,100559
2017-10-20T09:18:29.673Z,100561
2017-10-20T09:20:58.144Z,100570
2017-10-20T09:23:26.626Z,100574
2017-10-20T09:25:56.622Z,100571
2017-10-20T09:28:24.955Z,100588
2017-10-20T09:30:54.001Z,100575
2017-10-20T09:33:22.460Z,100580
2017-10-20T09:35:52.612Z,100572
2017-10-20T09:38:20.955Z,100577
2017-10-20T09:40:49.285Z,100592
2017-10-20T09:43:18.470Z,100589
2017-10-20T09:45:46.932Z,100593
2017-10-20T09:48:15.381Z,100594
2017-10-20T09:50:43.704Z,100596
2017-10-20T09:53:12.039Z,100600
2017-10-20T09:55:40.405Z,100602
2017-10-20T09:58:08.896Z,100604
2017-10-20T10:00:37.212Z,100617
2017-10-20T10:03:05.528Z,100609
2017-10-20T10:05:34.781Z,100605
2017-10-20T10:08:03.293Z,100606
2017-10-20T10:10:31.661Z,100612
2017-10-20T10:13:00.226Z,100619
2017-10-20T10:15:28.573Z,100614
2017-10-20T10:17:56.880Z,100616
2017-10-20T10:20:25.217Z,100614
2017-10-20T10:22:53.601Z,100607
2017-10-20T10:25:22.208Z,100607
2017-10-20T10:27:50.680Z,100603
2017-10-20T10:30:19.036Z,100604
2017-10-20T10:32:47.540Z,100601
2017-10-20T10:35:15.944Z,100609
2017-10-20T10:37:44.317Z,100601
2017-10-20T10:40:12.776Z,100612
2017-10-20T10:42:41.287Z,100611
2017-10-20T10:45:09.629Z,100625
2017-10-20T10:47:37.981Z,100627
2017-10-20T10:50:06.496Z,100619
2017-10-20T10:52:34.831Z,100615
2017-10-20T10:55:03.163Z,100621
2017-10-20T10:57:31.530Z,100612
2017-10-20T11:00:00.044Z,100587
2017-10-20T11:02:28.392Z,100587
2017-10-20T11:05:05.340Z,100607
2017-10-20T11:09:50.912Z,100603
2017-10-20T11:12:58.293Z,100595
2017-10-20T11:15:26.713Z,100574
2017-10-20T11:17:55.460Z,100575
2017-10-20T11:20:24.324Z,100570
2017-10-20T11:22:52.641Z,100568
2017-10-20T11:25:21.023Z,100573
2017-10-20T11:27:49.552Z,100571
2017-10-20T11:30:17.904Z,100563
2017-10-20T11:32:47.101Z,100552
2017-10-20T11:35:15.649Z,100549
2017-10-20T11:37:44.336Z,100543
2017-10-20T11:40:12.755Z,100537
2017-10-20T11:42:41.298Z,100531
2017-10-20T11:45:10.784Z,100504
2017-10-20T11:47:39.096Z,100500
2017-10-20T11:50:07.420Z,100507
2017-10-20T11:52:35.838Z,100506
2017-10-20T11:55:04.212Z,100497
2017-10-20T11:57:32.575Z,100479
2017-10-20T12:00:01.093Z,100488
2017-10-20T12:02:29.540Z,100483
2017-10-20T12:04:57.944Z,100476
2017-10-20T12:07:26.276Z,100471
2017-10-20T12:09:54.699Z,100473
2017-10-20T12:12:23.256Z,100476
2017-10-20T12:14:51.588Z,100470
2017-10-20T12:17:19.959Z,100469
2017-10-20T12:19:48.277Z,100468
2017-10-20T12:22:16.591Z,100474
2017-10-20T12:24:44.924Z,100485
2017-10-20T12:27:14.344Z,100472
2017-10-20T12:29:42.692Z,100472
2017-10-20T12:32:11.009Z,100470
2017-10-20T12:34:39.320Z,100457
2017-10-20T12:37:07.682Z,100468
2017-10-20T12:39:36.149Z,100467
2017-10-20T12:42:04.461Z,100461
2017-10-20T12:44:32.788Z,100471
2017-10-20T12:47:01.156Z,100476
2017-10-20T12:49:29.472Z,100465
2017-10-20T12:51:57.798Z,100463
2017-10-20T12:54:26.224Z,100454
2017-10-20T12:56:54.913Z,100462
2017-10-20T12:59:23.416Z,100467
2017-10-20T13:01:51.720Z,100471
2017-10-20T13:04:20.016Z,100469
2017-10-20T13:06:49.112Z,100477
2017-10-20T13:09:19.151Z,100481
2017-10-20T13:11:47.495Z,100480
2017-10-20T13:14:16.541Z,100476
2017-10-20T13:16:45.016Z,100476
2017-10-20T13:19:13.437Z,100463
2017-10-20T13:21:42.516Z,100460
2017-10-20T13:24:11.424Z,100443
2017-10-20T13:26:39.978Z,100421
2017-10-20T13:29:08.981Z,100405
2017-10-20T13:31:37.293Z,100383
2017-10-20T13:34:06.333Z,100401
2017-10-20T13:36:34.956Z,100413
2017-10-20T13:39:03.609Z,100451
2017-10-20T13:41:31.920Z,100458
2017-10-20T13:44:00.229Z,100471
2017-10-20T13:46:28.859Z,100458
2017-10-20T13:48:57.358Z,100463
2017-10-20T13:51:25.818Z,100474
2017-10-20T13:53:54.196Z,100469
2017-10-20T13:56:22.591Z,100465
2017-10-20T13:58:51.028Z,100457
2017-10-20T14:01:19.371Z,100456
2017-10-20T14:03:47.797Z,100447
2017-10-20T14:06:16.349Z,100444
2017-10-20T14:08:45.624Z,100447
2017-10-20T14:11:13.952Z,100437
2017-10-20T14:13:42.657Z,100426
2017-10-20T14:16:11.372Z,100434
2017-10-20T14:18:39.690Z,100430
2017-10-20T14:21:08.024Z,100413
2017-10-20T14:23:36.461Z,100422
2017-10-20T14:26:04.893Z,100415
2017-10-20T14:28:33.217Z,100429
2017-10-20T14:31:01.529Z,100431
2017-10-20T14:33:29.965Z,100423
2017-10-20T14:35:58.291Z,100425
2017-10-20T14:38:26.645Z,100428
2017-10-20T14:40:54.968Z,100430
2017-10-20T14:43:23.491Z,100438
2017-10-20T14:45:51.810Z,100448
2017-10-20T14:48:20.114Z,100454
2017-10-20T14:50:49.181Z,100464
2017-10-20T14:53:17.508Z,100444
2017-10-20T14:55:45.857Z,100450
2017-10-20T14:58:14.184Z,100446
2017-10-20T15:00:42.540Z,100451
2017-10-20T15:03:11.659Z,100448
2017-10-20T15:05:40.058Z,100448
2017-10-20T15:08:08.374Z,100457
2017-10-20T15:10:36.739Z,100457
2017-10-20T15:13:06.541Z,100456
2017-10-20T15:15:35.220Z,100455
2017-10-20T15:18:03.600Z,100468
2017-10-20T15:20:32.064Z,100466
2017-10-20T15:23:00.558Z,100458
2017-10-20T15:25:28.862Z,100467
2017-10-20T15:27:57.963Z,100459
2017-10-20T15:30:26.377Z,100468
2017-10-20T15:32:54.705Z,100476
2017-10-20T15:35:23.055Z,100476
2017-10-20T15:37:51.441Z,100479
2017-10-20T15:40:19.938Z,100471
2017-10-20T15:42:48.565Z,100478
2017-10-20T15:45:17.065Z,100481
2017-10-20T15:47:45.372Z,100489
2017-10-20T15:50:13.676Z,100485
2017-10-20T15:52:41.980Z,100483
2017-10-20T15:55:10.336Z,100491
2017-10-20T15:57:38.791Z,100484
2017-10-20T16:00:07.096Z,100494
2017-10-20T16:02:35.419Z,100489
2017-10-20T16:05:03.933Z,100493
2017-10-20T16:07:32.280Z,100488
2017-10-20T16:10:00.644Z,100492
2017-10-20T16:12:29.084Z,100488
2017-10-20T16:14:57.411Z,100503
2017-10-20T16:17:26.041Z,100500
2017-10-20T16:19:54.657Z,100512
2017-10-20T16:22:22.985Z,100502
2017-10-20T16:24:51.466Z,100511
2017-10-20T16:27:19.908Z,100517
2017-10-20T16:29:48.247Z,100518
2017-10-20T16:50:16.333Z,100524
2017-10-20T16:52:44.458Z,100523
2017-10-20T16:55:12.567Z,100520
2017-10-20T16:57:40.722Z,100528
2017-10-20T17:00:08.826Z,100529
2017-10-20T17:02:36.968Z,100523
2017-10-20T17:05:05.166Z,100529
2017-10-20T17:07:33.241Z,100523
2017-10-20T17:10:01.315Z,100530
2017-10-20T17:12:29.589Z,100532
2017-10-20T17:14:57.698Z,100532
2017-10-20T17:17:26.514Z,100531
2017-10-20T17:19:54.594Z,100531
2017-10-20T17:22:22.717Z,100527
2017-10-20T17:24:51.230Z,100540
2017-10-20T17:27:20.060Z,100533
2017-10-20T17:29:48.139Z,100532
2017-10-20T17:32:16.199Z,100535
2017-10-20T17:34:44.284Z,100536
2017-10-20T17:37:12.383Z,100534
2017-10-20T17:39:40.479Z,100544
2017-10-20T17:42:08.589Z,100548
2017-10-20T17:44:36.661Z,100552
2017-10-20T17:47:04.779Z,100549
2017-10-20T17:49:32.907Z,100555
2017-10-20T17:52:00.986Z,100555
2017-10-20T17:54:29.058Z,100558
2017-10-20T17:56:57.208Z,100562
2017-10-20T17:59:25.286Z,100564
2017-10-20T18:01:53.390Z,100565
2017-10-20T18:04:21.478Z,100557
2017-10-20T18:06:50.294Z,100566
2017-10-20T18:09:19.114Z,100566
2017-10-20T18:11:47.225Z,100564
2017-10-20T18:14:15.883Z,100572
2017-10-20T18:16:43.994Z,100555
2017-10-20T18:19:12.094Z,100478
2017-10-20T18:21:40.930Z,100568
2017-10-20T18:24:09.005Z,100557
2017-10-20T18:26:37.071Z,100566
2017-10-20T18:29:05.150Z,100562
2017-10-20T18:31:33.631Z,100578
2017-10-20T18:34:01.966Z,100578
2017-10-20T18:36:30.049Z,100570
2017-10-20T18:38:58.125Z,100583
2017-10-20T18:41:26.242Z,100577
2017-10-20T18:43:55.798Z,100586
2017-10-20T18:46:23.903Z,100590
2017-10-20T18:48:51.973Z,100591
2017-10-20T18:51:20.061Z,100594
2017-10-20T18:53:48.141Z,100596
2017-10-20T18:56:16.226Z,100597
2017-10-20T18:58:45.083Z,100601
2017-10-20T19:01:13.294Z,100605
2017-10-20T19:03:41.375Z,100608
2017-10-20T19:06:09.474Z,100601
2017-10-20T19:08:37.590Z,100610
2017-10-20T19:11:05.683Z,100606
2017-10-20T19:13:34.938Z,100609
2017-10-20T19:16:03.183Z,100615
2017-10-20T19:18:31.271Z,100619
2017-10-20T19:20:59.354Z,100616
2017-10-20T19:23:27.530Z,100612
2017-10-20T19:25:55.694Z,100608
2017-10-20T19:28:23.822Z,100613
2017-10-20T19:30:52.195Z,100621
2017-10-20T19:33:20.369Z,100629
2017-10-20T19:35:48.547Z,100612
2017-10-20T19:38:17.538Z,100631
2017-10-20T19:40:45.781Z,100620
2017-10-20T19:43:13.929Z,100641
2017-10-20T19:45:42.155Z,100642
2017-10-20T19:48:10.278Z,100644
2017-10-20T19:50:38.474Z,100646
2017-10-20T19:53:06.854Z,100652
2017-10-20T19:55:34.989Z,100643
2017-10-20T19:58:03.107Z,100648
2017-10-20T20:00:31.306Z,100645
2017-10-20T20:02:59.487Z,100647
2017-10-20T20:05:28.406Z,100649
2017-10-20T20:07:56.618Z,100639
2017-10-20T20:10:26.180Z,100645
2017-10-20T20:12:54.282Z,100644
2017-10-20T20:15:22.524Z,100647
2017-10-20T20:17:51.418Z,100643
2017-10-20T20:20:20.302Z,100652
2017-10-20T20:22:48.402Z,100641
2017-10-20T20:25:16.523Z,100647
2017-10-20T20:27:44.806Z,100650
2017-10-20T20:30:12.973Z,100661
2017-10-20T20:32:41.116Z,100647
2017-10-20T20:35:09.499Z,100652
2017-10-20T20:37:37.902Z,100657
2017-10-20T20:40:06.051Z,100652
2017-10-20T20:42:34.149Z,100655
2017-10-20T20:45:02.314Z,100654
2017-10-20T20:47:30.417Z,100648
2017-10-20T20:49:58.486Z,100657
2017-10-20T20:52:27.038Z,100653
2017-10-20T20:54:55.302Z,100654
2017-10-20T20:57:23.394Z,100646
2017-10-20T20:59:52.275Z,100651
2017-10-20T21:02:20.426Z,100658
2017-10-20T21:04:48.588Z,100656
2017-10-20T21:07:16.890Z,100655
2017-10-20T21:09:45.148Z,100656
2017-10-20T21:12:13.392Z,100654
2017-10-20T21:14:41.998Z,100659
2017-10-20T21:17:10.110Z,100655
2017-10-20T21:19:38.209Z,100659
2017-10-20T21:22:06.297Z,100661
2017-10-20T21:24:34.357Z,100652
2017-10-20T21:27:02.543Z,100662
2017-10-20T21:29:31.378Z,100655
2017-10-20T21:31:59.470Z,100659
2017-10-20T21:34:27.600Z,100657
2017-10-20T21:36:55.658Z,100663
2017-10-20T21:39:24.938Z,100657
2017-10-20T21:41:53.047Z,100656
2017-10-20T21:44:21.122Z,100650
2017-10-20T21:46:49.213Z,100655
2017-10-20T21:49:17.312Z,100667
2017-10-20T21:51:45.399Z,100662
2017-10-20T21:54:13.450Z,100656
2017-10-20T21:56:41.814Z,100645
2017-10-20T21:59:09.912Z,100656
2017-10-20T22:01:37.990Z,100658
2017-10-20T22:04:06.086Z,100660
2017-10-20T22:06:34.874Z,100662
2017-10-20T22:09:03.369Z,100657
2017-10-20T22:11:32.083Z,100658
2017-10-20T22:14:00.146Z,100650
2017-10-20T22:16:28.218Z,100655
2017-10-20T22:18:56.302Z,100654
2017-10-20T22:21:24.367Z,100660
2017-10-20T22:23:52.470Z,100654
2017-10-20T22:26:20.658Z,100660
2017-10-20T22:28:49.633Z,100655
2017-10-20T22:31:17.934Z,100647
2017-10-20T22:33:46.470Z,100656
2017-10-20T22:36:14.556Z,100656
2017-10-20T22:38:43.990Z,100659
2017-10-20T22:41:12.324Z,100665
2017-10-20T22:43:40.460Z,100672
2017-10-20T22:46:08.659Z,100665
2017-10-20T22:48:36.744Z,100655
2017-10-20T22:51:05.021Z,100662
2017-10-20T22:53:33.188Z,100659
2017-10-20T22:56:02.066Z,100666
2017-10-20T22:58:30.148Z,100664
2017-10-20T23:00:58.473Z,100668
2017-10-20T23:03:26.647Z,100664
2017-10-20T23:05:54.726Z,100661
2017-10-20T23:08:22.904Z,100665
2017-10-20T23:10:51.033Z,100668
2017-10-20T23:13:19.152Z,100664
2017-10-20T23:15:47.221Z,100664
2017-10-20T23:18:15.874Z,100662
2017-10-20T23:20:43.961Z,100671
2017-10-20T23:23:12.110Z,100665
2017-10-20T23:25:40.194Z,100660
2017-10-20T23:28:08.294Z,100670
2017-10-20T23:30:36.353Z,100672
2017-10-20T23:33:04.430Z,100679
2017-10-20T23:35:32.502Z,100670
2017-10-20T23:38:00.623Z,100677
2017-10-20T23:40:29.001Z,100673
2017-10-20T23:42:57.084Z,100666
2017-10-20T23:45:25.167Z,100672
2017-10-20T23:47:53.242Z,100682
2017-10-20T23:50:21.302Z,100674
2017-10-20T23:52:49.379Z,100677
2017-10-20T23:55:17.430Z,100675
2017-10-20T23:57:45.875Z,100677
